createdAt,value
2018-11-26T00:00:36.485Z,27.43
2018-11-26T00:01:14.396Z,27.43
2018-11-26T00:01:52.113Z,27.39
2018-11-26T00:02:32.130Z,27.40
2018-11-26T00:03:13.917Z,27.42
2018-11-26T00:03:51.755Z,27.43
2018-11-26T00:04:29.712Z,27.43
2018-11-26T00:05:07.915Z,27.43
2018-11-26T00:05:45.788Z,27.44
2018-11-26T00:06:23.733Z,27.44
2018-11-26T00:07:01.512Z,27.46
2018-11-26T00:07:39.387Z,27.47
2018-11-26T00:08:17.453Z,27.48
2018-11-26T00:08:55.249Z,27.48
2018-11-26T00:09:33.052Z,27.50
2018-11-26T00:10:45.135Z,27.50
2018-11-26T00:11:39.467Z,27.53
2018-11-26T00:12:17.349Z,27.55
2018-11-26T00:12:56.680Z,27.56
2018-11-26T00:13:34.436Z,27.59
2018-11-26T00:14:12.353Z,27.58
2018-11-26T00:14:50.231Z,27.59
2018-11-26T00:15:28.147Z,27.62
2018-11-26T00:16:05.997Z,27.62
2018-11-26T00:16:43.871Z,27.64
2018-11-26T00:17:21.582Z,27.67
2018-11-26T00:18:01.255Z,27.67
2018-11-26T00:18:39.057Z,27.69
2018-11-26T00:19:16.871Z,27.70
2018-11-26T00:19:54.623Z,27.71
2018-11-26T00:20:32.458Z,27.73
2018-11-26T00:21:14.920Z,27.75
2018-11-26T00:21:52.831Z,27.76
2018-11-26T00:22:30.533Z,27.76
2018-11-26T00:23:08.554Z,27.77
2018-11-26T00:23:46.526Z,27.76
2018-11-26T00:24:24.439Z,27.80
2018-11-26T00:25:03.426Z,27.81
2018-11-26T00:25:43.318Z,27.81
2018-11-26T00:26:21.816Z,27.82
2018-11-26T00:26:59.835Z,27.83
2018-11-26T00:27:37.600Z,27.84
2018-11-26T00:28:15.515Z,27.87
2018-11-26T00:28:53.388Z,27.88
2018-11-26T00:29:31.227Z,27.89
2018-11-26T00:30:13.707Z,27.89
2018-11-26T00:30:51.463Z,27.92
2018-11-26T00:31:29.854Z,27.93
2018-11-26T00:32:10.733Z,27.93
2018-11-26T00:32:48.418Z,27.95
2018-11-26T00:33:26.074Z,27.96
2018-11-26T00:34:05.067Z,27.98
2018-11-26T00:34:42.802Z,27.99
2018-11-26T00:35:20.750Z,28.00
2018-11-26T00:35:59.583Z,28.01
2018-11-26T00:36:37.446Z,28.04
2018-11-26T00:37:15.362Z,28.06
2018-11-26T00:37:53.229Z,28.06
2018-11-26T00:38:31.194Z,28.08
2018-11-26T00:39:10.839Z,28.09
2018-11-26T00:39:49.344Z,28.11
2018-11-26T00:40:27.207Z,28.11
2018-11-26T00:41:04.885Z,28.12
2018-11-26T00:41:42.740Z,28.12
2018-11-26T00:42:20.534Z,28.13
2018-11-26T00:42:58.264Z,28.14
2018-11-26T00:43:36.124Z,28.15
2018-11-26T00:44:13.919Z,28.15
2018-11-26T00:44:51.628Z,28.16
2018-11-26T00:45:29.581Z,28.17
2018-11-26T00:46:07.347Z,28.19
2018-11-26T00:46:45.273Z,28.20
2018-11-26T00:47:23.151Z,28.23
2018-11-26T00:48:01.042Z,28.23
2018-11-26T00:48:38.813Z,28.25
2018-11-26T00:49:16.645Z,28.25
2018-11-26T00:49:54.509Z,28.27
2018-11-26T00:50:32.352Z,28.28
2018-11-26T00:51:10.594Z,28.30
2018-11-26T00:51:48.283Z,28.32
2018-11-26T00:52:26.118Z,28.33
2018-11-26T00:53:04.045Z,28.34
2018-11-26T00:53:41.979Z,28.35
2018-11-26T00:54:19.864Z,28.38
2018-11-26T00:54:57.943Z,28.41
2018-11-26T00:55:35.818Z,28.45
2018-11-26T00:56:13.675Z,28.45
2018-11-26T00:56:51.550Z,28.45
2018-11-26T00:57:29.443Z,28.47
2018-11-26T00:58:07.285Z,28.50
2018-11-26T00:58:45.008Z,28.52
2018-11-26T00:59:22.888Z,28.53
2018-11-26T01:00:00.669Z,28.57
2018-11-26T01:00:39.837Z,28.57
2018-11-26T01:01:17.597Z,28.59
2018-11-26T01:01:55.375Z,28.60
2018-11-26T01:02:33.167Z,28.65
2018-11-26T01:03:11.116Z,28.65
2018-11-26T01:03:48.920Z,28.65
2018-11-26T01:04:26.679Z,28.66
2018-11-26T01:05:05.681Z,28.66
2018-11-26T01:05:43.917Z,28.72
2018-11-26T01:06:21.973Z,28.75
2018-11-26T01:06:59.751Z,28.75
2018-11-26T01:07:37.576Z,28.79
2018-11-26T01:08:15.358Z,28.79
2018-11-26T01:08:53.223Z,28.81
2018-11-26T01:09:30.912Z,28.81
2018-11-26T01:10:08.729Z,28.86
2018-11-26T01:10:46.533Z,28.86
2018-11-26T01:11:24.262Z,28.86
2018-11-26T01:12:02.081Z,28.87
2018-11-26T01:12:39.786Z,28.80
2018-11-26T01:13:17.525Z,28.86
2018-11-26T01:13:55.349Z,28.86
2018-11-26T01:14:33.451Z,28.93
2018-11-26T01:15:11.700Z,28.93
2018-11-26T01:15:49.541Z,28.96
2018-11-26T01:16:27.249Z,28.98
2018-11-26T01:17:05.042Z,28.98
2018-11-26T01:17:42.884Z,28.93
2018-11-26T01:18:20.801Z,29.02
2018-11-26T01:18:58.868Z,29.03
2018-11-26T01:19:36.706Z,29.04
2018-11-26T01:20:14.713Z,29.04
2018-11-26T01:20:52.432Z,29.05
2018-11-26T01:21:30.177Z,29.05
2018-11-26T01:22:08.038Z,29.07
2018-11-26T01:22:45.924Z,29.08
2018-11-26T01:23:23.728Z,29.08
2018-11-26T01:24:01.764Z,29.08
2018-11-26T01:24:39.493Z,29.03
2018-11-26T01:25:17.519Z,29.09
2018-11-26T01:25:55.191Z,29.09
2018-11-26T01:26:33.165Z,29.08
2018-11-26T01:27:10.854Z,29.10
2018-11-26T01:27:48.552Z,29.07
2018-11-26T01:28:26.327Z,29.07
2018-11-26T01:29:04.211Z,29.15
2018-11-26T01:29:41.925Z,29.15
2018-11-26T01:30:19.851Z,29.12
2018-11-26T01:30:57.639Z,29.17
2018-11-26T01:31:35.509Z,29.16
2018-11-26T01:32:13.411Z,29.16
2018-11-26T01:32:51.239Z,29.20
2018-11-26T01:33:29.131Z,29.25
2018-11-26T01:34:06.955Z,29.25
2018-11-26T01:34:44.862Z,29.29
2018-11-26T01:35:22.717Z,29.27
2018-11-26T01:36:00.627Z,29.33
2018-11-26T01:36:38.419Z,29.33
2018-11-26T01:37:16.186Z,29.35
2018-11-26T01:37:54.117Z,29.41
2018-11-26T01:38:31.977Z,29.39
2018-11-26T01:39:11.612Z,29.45
2018-11-26T01:39:49.493Z,29.45
2018-11-26T01:40:47.116Z,29.48
2018-11-26T01:41:24.912Z,29.56
2018-11-26T01:42:02.700Z,29.56
2018-11-26T01:42:40.648Z,29.62
2018-11-26T01:43:18.613Z,29.62
2018-11-26T01:43:56.386Z,29.60
2018-11-26T01:44:34.139Z,29.65
2018-11-26T01:45:12.338Z,29.65
2018-11-26T01:45:50.316Z,29.72
2018-11-26T01:46:28.942Z,29.76
2018-11-26T01:47:06.825Z,29.76
2018-11-26T01:47:44.575Z,29.84
2018-11-26T01:48:22.596Z,29.90
2018-11-26T01:49:00.465Z,29.93
2018-11-26T01:49:38.886Z,29.89
2018-11-26T01:50:22.921Z,30.01
2018-11-26T01:51:00.604Z,30.01
2018-11-26T01:51:38.366Z,30.04
2018-11-26T01:52:16.207Z,30.03
2018-11-26T01:52:54.049Z,30.06
2018-11-26T01:53:32.011Z,30.08
2018-11-26T01:54:10.096Z,30.08
2018-11-26T01:54:48.065Z,30.02
2018-11-26T01:55:25.887Z,30.04
2018-11-26T01:56:03.731Z,30.10
2018-11-26T01:56:41.616Z,30.10
2018-11-26T01:57:20.116Z,30.17
2018-11-26T01:57:58.018Z,30.20
2018-11-26T01:58:35.890Z,30.22
2018-11-26T01:59:13.742Z,30.21
2018-11-26T01:59:51.477Z,30.29
2018-11-26T02:00:30.325Z,30.33
2018-11-26T02:01:08.318Z,30.32
2018-11-26T02:01:46.206Z,30.36
2018-11-26T02:02:23.962Z,30.34
2018-11-26T02:03:01.926Z,30.40
2018-11-26T02:03:59.083Z,30.41
2018-11-26T02:04:36.989Z,30.42
2018-11-26T02:05:16.042Z,30.44
2018-11-26T02:05:53.837Z,30.45
2018-11-26T02:06:31.795Z,30.46
2018-11-26T02:07:09.866Z,30.47
2018-11-26T02:07:47.714Z,30.49
2018-11-26T02:08:25.443Z,30.49
2018-11-26T02:09:03.599Z,30.49
2018-11-26T02:09:41.483Z,30.51
2018-11-26T02:10:20.677Z,30.51
2018-11-26T02:10:58.606Z,30.53
2018-11-26T02:11:36.401Z,30.54
2018-11-26T02:12:14.323Z,30.55
2018-11-26T02:12:52.030Z,30.55
2018-11-26T02:13:29.811Z,30.56
2018-11-26T02:14:07.593Z,30.57
2018-11-26T02:14:45.429Z,30.57
2018-11-26T02:15:42.748Z,30.57
2018-11-26T02:16:20.663Z,30.58
2018-11-26T02:16:58.377Z,30.59
2018-11-26T02:17:36.334Z,30.60
2018-11-26T02:18:14.352Z,30.61
2018-11-26T02:18:52.018Z,30.62
2018-11-26T02:19:29.734Z,30.62
2018-11-26T02:20:07.662Z,30.63
2018-11-26T02:20:45.576Z,30.63
2018-11-26T02:21:23.386Z,30.62
2018-11-26T02:22:01.305Z,30.63
2018-11-26T02:22:39.195Z,30.63
2018-11-26T02:23:17.029Z,30.63
2018-11-26T02:23:54.991Z,30.61
2018-11-26T02:24:32.777Z,30.61
2018-11-26T02:25:11.307Z,30.62
2018-11-26T02:25:49.237Z,30.61
2018-11-26T02:26:27.092Z,30.64
2018-11-26T02:27:04.857Z,30.64
2018-11-26T02:27:42.640Z,30.66
2018-11-26T02:28:20.711Z,30.68
2018-11-26T02:28:58.678Z,30.69
2018-11-26T02:29:36.458Z,30.71
2018-11-26T02:30:14.311Z,30.72
2018-11-26T02:30:52.084Z,30.73
2018-11-26T02:31:29.816Z,30.75
2018-11-26T02:32:07.657Z,30.76
2018-11-26T02:32:45.483Z,30.79
2018-11-26T02:33:23.218Z,30.82
2018-11-26T02:34:00.939Z,30.84
2018-11-26T02:34:38.761Z,30.85
2018-11-26T02:35:16.622Z,30.88
2018-11-26T02:35:54.456Z,30.90
2018-11-26T02:36:32.410Z,30.93
2018-11-26T02:37:10.366Z,31.05
2018-11-26T02:37:51.049Z,31.09
2018-11-26T02:38:28.923Z,31.11
2018-11-26T02:39:06.833Z,31.19
2018-11-26T02:39:44.773Z,31.18
2018-11-26T02:40:29.478Z,31.23
2018-11-26T02:41:07.415Z,31.35
2018-11-26T02:41:45.332Z,31.39
2018-11-26T02:42:23.222Z,31.41
2018-11-26T02:43:01.060Z,31.56
2018-11-26T02:43:39.061Z,31.72
2018-11-26T02:44:16.974Z,31.87
2018-11-26T02:44:54.930Z,32.02
2018-11-26T02:45:33.014Z,32.14
2018-11-26T02:46:11.127Z,32.20
2018-11-26T02:46:49.125Z,32.19
2018-11-26T02:47:26.900Z,32.15
2018-11-26T02:48:04.563Z,32.13
2018-11-26T02:48:42.271Z,32.08
2018-11-26T02:49:20.158Z,32.06
2018-11-26T02:49:57.934Z,32.06
2018-11-26T02:50:35.733Z,32.04
2018-11-26T02:51:13.599Z,32.03
2018-11-26T02:51:51.371Z,32.02
2018-11-26T02:52:29.090Z,32.10
2018-11-26T02:53:06.944Z,32.11
2018-11-26T02:53:47.802Z,32.07
2018-11-26T02:54:25.727Z,32.03
2018-11-26T02:55:03.524Z,31.96
2018-11-26T02:55:41.396Z,31.91
2018-11-26T02:56:19.185Z,31.90
2018-11-26T02:56:57.222Z,31.87
2018-11-26T02:57:35.015Z,31.93
2018-11-26T02:58:12.808Z,31.89
2018-11-26T02:58:50.695Z,31.87
2018-11-26T02:59:28.658Z,31.84
2018-11-26T03:00:06.716Z,31.83
2018-11-26T03:00:47.484Z,31.80
2018-11-26T03:01:25.366Z,31.79
2018-11-26T03:02:03.072Z,31.79
2018-11-26T03:02:40.998Z,31.77
2018-11-26T03:03:19.276Z,31.75
2018-11-26T03:03:57.043Z,31.76
2018-11-26T03:04:35.026Z,31.76
2018-11-26T03:05:14.036Z,31.76
2018-11-26T03:05:51.920Z,31.70
2018-11-26T03:06:29.835Z,31.73
2018-11-26T03:07:07.926Z,31.70
2018-11-26T03:07:45.687Z,31.70
2018-11-26T03:08:23.611Z,31.70
2018-11-26T03:09:01.353Z,31.71
2018-11-26T03:09:39.302Z,31.71
2018-11-26T03:10:17.014Z,31.70
2018-11-26T03:10:55.073Z,31.72
2018-11-26T03:11:32.819Z,31.69
2018-11-26T03:12:10.849Z,31.69
2018-11-26T03:12:51.992Z,31.70
2018-11-26T03:13:30.493Z,31.70
2018-11-26T03:14:08.439Z,31.72
2018-11-26T03:14:46.751Z,31.70
2018-11-26T03:15:24.585Z,31.73
2018-11-26T03:16:02.381Z,31.74
2018-11-26T03:16:40.259Z,31.74
2018-11-26T03:17:18.036Z,31.75
2018-11-26T03:17:55.812Z,31.76
2018-11-26T03:18:33.655Z,31.77
2018-11-26T03:19:11.395Z,31.76
2018-11-26T03:19:49.102Z,31.75
2018-11-26T03:20:26.931Z,31.75
2018-11-26T03:21:07.680Z,31.75
2018-11-26T03:21:53.981Z,31.75
2018-11-26T03:22:31.924Z,31.75
2018-11-26T03:23:10.402Z,31.75
2018-11-26T03:23:48.804Z,31.76
2018-11-26T03:24:27.111Z,31.77
2018-11-26T03:25:05.047Z,31.79
2018-11-26T03:25:42.974Z,31.81
2018-11-26T03:26:20.787Z,31.82
2018-11-26T03:26:58.633Z,31.82
2018-11-26T03:27:36.549Z,31.84
2018-11-26T03:28:14.295Z,31.85
2018-11-26T03:28:52.481Z,31.85
2018-11-26T03:29:30.284Z,31.85
2018-11-26T03:30:12.210Z,31.85
2018-11-26T03:30:50.003Z,31.85
2018-11-26T03:31:27.861Z,31.86
2018-11-26T03:32:05.654Z,31.85
2018-11-26T03:32:43.591Z,31.83
2018-11-26T03:33:21.446Z,31.86
2018-11-26T03:33:59.236Z,31.88
2018-11-26T03:34:37.142Z,31.88
2018-11-26T03:35:15.240Z,31.89
2018-11-26T03:35:53.227Z,31.90
2018-11-26T03:36:31.146Z,31.91
2018-11-26T03:37:09.029Z,31.92
2018-11-26T03:37:46.757Z,31.95
2018-11-26T03:38:54.786Z,31.99
2018-11-26T03:39:32.542Z,32.01
2018-11-26T03:40:19.431Z,31.99
2018-11-26T03:40:57.370Z,32.00
2018-11-26T03:41:35.156Z,32.01
2018-11-26T03:42:12.996Z,32.02
2018-11-26T03:42:50.906Z,32.02
2018-11-26T03:43:30.146Z,32.03
2018-11-26T03:44:07.898Z,32.04
2018-11-26T03:44:45.800Z,32.01
2018-11-26T03:45:23.599Z,32.03
2018-11-26T03:46:02.930Z,32.00
2018-11-26T03:46:40.744Z,32.01
2018-11-26T03:47:18.581Z,32.01
2018-11-26T03:47:56.287Z,32.03
2018-11-26T03:48:34.186Z,32.03
2018-11-26T03:49:12.086Z,32.04
2018-11-26T03:49:49.923Z,32.09
2018-11-26T03:50:27.886Z,32.14
2018-11-26T03:51:05.621Z,32.16
2018-11-26T03:51:43.372Z,32.23
2018-11-26T03:52:21.142Z,32.26
2018-11-26T03:52:58.952Z,32.29
2018-11-26T03:53:36.830Z,32.33
2018-11-26T03:54:14.566Z,32.35
2018-11-26T03:54:52.493Z,32.36
2018-11-26T03:55:30.208Z,32.29
2018-11-26T03:56:08.407Z,32.33
2018-11-26T03:56:46.256Z,32.40
2018-11-26T03:57:24.145Z,32.45
2018-11-26T03:58:04.786Z,32.44
2018-11-26T03:58:42.549Z,32.49
2018-11-26T03:59:20.305Z,32.52
2018-11-26T03:59:57.991Z,32.61
2018-11-26T04:00:35.810Z,32.73
2018-11-26T04:01:13.607Z,32.82
2018-11-26T04:01:51.560Z,32.88
2018-11-26T04:02:29.349Z,32.93
2018-11-26T04:03:07.143Z,32.98
2018-11-26T04:03:44.862Z,32.94
2018-11-26T04:04:22.768Z,32.97
2018-11-26T04:05:00.698Z,32.94
2018-11-26T04:05:38.576Z,32.93
2018-11-26T04:06:16.353Z,32.88
2018-11-26T04:06:54.134Z,32.88
2018-11-26T04:07:31.892Z,32.82
2018-11-26T04:08:09.754Z,32.77
2018-11-26T04:08:47.460Z,32.75
2018-11-26T04:09:25.415Z,32.71
2018-11-26T04:10:03.275Z,32.68
2018-11-26T04:10:41.151Z,32.64
2018-11-26T04:11:19.319Z,32.63
2018-11-26T04:11:57.129Z,32.61
2018-11-26T04:12:34.886Z,32.58
2018-11-26T04:13:12.648Z,32.53
2018-11-26T04:13:50.599Z,32.52
2018-11-26T04:14:28.466Z,32.50
2018-11-26T04:15:06.461Z,32.45
2018-11-26T04:15:44.242Z,32.44
2018-11-26T04:16:21.981Z,32.44
2018-11-26T04:16:59.993Z,32.44
2018-11-26T04:17:37.701Z,32.44
2018-11-26T04:18:15.533Z,32.41
2018-11-26T04:18:53.253Z,32.40
2018-11-26T04:19:31.287Z,32.39
2018-11-26T04:20:09.550Z,32.38
2018-11-26T04:20:47.306Z,32.37
2018-11-26T04:21:25.165Z,32.37
2018-11-26T04:22:02.942Z,32.36
2018-11-26T04:22:40.831Z,32.32
2018-11-26T04:23:18.434Z,32.33
2018-11-26T04:23:56.157Z,32.32
2018-11-26T04:24:33.964Z,32.34
2018-11-26T04:25:12.564Z,32.31
2018-11-26T04:25:50.273Z,32.34
2018-11-26T04:26:28.211Z,32.34
2018-11-26T04:27:06.121Z,32.33
2018-11-26T04:27:43.877Z,32.35
2018-11-26T04:28:21.646Z,32.35
2018-11-26T04:28:59.344Z,32.33
2018-11-26T04:29:37.143Z,32.28
2018-11-26T04:30:15.676Z,32.29
2018-11-26T04:30:53.449Z,32.31
2018-11-26T04:31:31.358Z,32.28
2018-11-26T04:32:12.036Z,32.25
2018-11-26T04:32:49.901Z,32.26
2018-11-26T04:33:27.670Z,32.21
2018-11-26T04:34:05.430Z,32.23
2018-11-26T04:34:43.200Z,32.26
2018-11-26T04:35:20.965Z,32.25
2018-11-26T04:35:58.849Z,32.21
2018-11-26T04:36:36.576Z,32.20
2018-11-26T04:37:14.318Z,32.23
2018-11-26T04:37:52.234Z,32.26
2018-11-26T04:38:29.916Z,32.26
2018-11-26T04:39:09.705Z,32.24
2018-11-26T04:39:47.644Z,32.26
2018-11-26T04:40:25.517Z,32.28
2018-11-26T04:41:03.232Z,32.29
2018-11-26T04:41:41.003Z,32.29
2018-11-26T04:42:18.909Z,32.32
2018-11-26T04:42:56.612Z,32.32
2018-11-26T04:43:34.532Z,32.31
2018-11-26T04:44:12.241Z,32.29
2018-11-26T04:44:50.096Z,32.34
2018-11-26T04:45:27.859Z,32.33
2018-11-26T04:46:05.687Z,32.36
2018-11-26T04:46:43.448Z,32.35
2018-11-26T04:47:21.397Z,32.37
2018-11-26T04:47:59.175Z,32.37
2018-11-26T04:48:37.023Z,32.34
2018-11-26T04:49:14.968Z,32.34
2018-11-26T04:49:52.807Z,32.38
2018-11-26T04:50:30.705Z,32.39
2018-11-26T04:51:08.504Z,32.43
2018-11-26T04:51:46.267Z,32.42
2018-11-26T04:52:24.034Z,32.44
2018-11-26T04:53:02.138Z,32.46
2018-11-26T04:53:39.942Z,32.46
2018-11-26T04:54:17.873Z,32.46
2018-11-26T04:54:55.659Z,32.47
2018-11-26T04:55:33.506Z,32.54
2018-11-26T04:56:11.434Z,32.50
2018-11-26T04:56:49.232Z,32.52
2018-11-26T04:57:27.140Z,32.54
2018-11-26T04:58:05.083Z,32.58
2018-11-26T04:58:42.995Z,32.58
2018-11-26T04:59:22.904Z,32.57
2018-11-26T05:00:00.679Z,32.58
2018-11-26T05:00:38.449Z,32.61
2018-11-26T05:01:16.362Z,32.65
2018-11-26T05:01:54.228Z,32.58
2018-11-26T05:02:31.944Z,32.64
2018-11-26T05:03:09.893Z,32.69
2018-11-26T05:03:47.782Z,32.71
2018-11-26T05:04:25.628Z,32.71
2018-11-26T05:05:03.413Z,32.78
2018-11-26T05:05:41.300Z,32.80
2018-11-26T05:06:19.134Z,32.85
2018-11-26T05:06:57.006Z,32.97
2018-11-26T05:07:34.909Z,33.08
2018-11-26T05:08:12.734Z,33.18
2018-11-26T05:08:50.460Z,33.30
2018-11-26T05:09:31.211Z,33.32
2018-11-26T05:10:10.563Z,33.34
2018-11-26T05:10:48.344Z,33.44
2018-11-26T05:11:26.292Z,33.51
2018-11-26T05:12:04.142Z,33.55
2018-11-26T05:12:41.793Z,33.57
2018-11-26T05:13:19.713Z,33.54
2018-11-26T05:13:57.378Z,33.57
2018-11-26T05:14:35.102Z,33.56
2018-11-26T05:15:16.588Z,33.58
2018-11-26T05:15:54.468Z,33.58
2018-11-26T05:16:32.366Z,33.54
2018-11-26T05:17:10.337Z,33.56
2018-11-26T05:17:48.149Z,33.61
2018-11-26T05:18:26.093Z,33.64
2018-11-26T05:19:03.766Z,33.68
2018-11-26T05:19:41.580Z,33.73
2018-11-26T05:20:19.513Z,33.79
2018-11-26T05:20:57.347Z,33.79
2018-11-26T05:21:35.155Z,33.80
2018-11-26T05:22:13.112Z,33.80
2018-11-26T05:22:50.905Z,33.79
2018-11-26T05:23:28.811Z,33.78
2018-11-26T05:24:06.559Z,33.76
2018-11-26T05:24:44.338Z,33.70
2018-11-26T05:25:22.246Z,33.65
2018-11-26T05:26:00.088Z,33.60
2018-11-26T05:26:37.994Z,33.56
2018-11-26T05:27:15.863Z,33.52
2018-11-26T05:27:53.780Z,33.54
2018-11-26T05:28:31.653Z,33.54
2018-11-26T05:29:09.755Z,33.49
2018-11-26T05:29:47.490Z,33.41
2018-11-26T05:30:25.197Z,33.35
2018-11-26T05:31:03.059Z,33.29
2018-11-26T05:31:41.160Z,33.28
2018-11-26T05:32:18.927Z,33.26
2018-11-26T05:32:56.636Z,33.23
2018-11-26T05:33:34.358Z,33.25
2018-11-26T05:34:12.298Z,33.24
2018-11-26T05:34:50.058Z,33.22
2018-11-26T05:35:27.897Z,33.29
2018-11-26T05:36:05.668Z,33.27
2018-11-26T05:36:43.335Z,33.22
2018-11-26T05:37:21.249Z,33.20
2018-11-26T05:37:58.981Z,33.17
2018-11-26T05:38:36.828Z,33.14
2018-11-26T05:39:14.577Z,33.06
2018-11-26T05:39:52.433Z,32.99
2018-11-26T05:40:30.143Z,33.02
2018-11-26T05:41:07.986Z,33.01
2018-11-26T05:41:45.896Z,33.04
2018-11-26T05:42:28.708Z,33.06
2018-11-26T05:43:02.434Z,33.10
2018-11-26T05:43:41.693Z,33.05
2018-11-26T05:44:19.589Z,33.03
2018-11-26T05:44:57.482Z,33.07
2018-11-26T05:45:35.390Z,33.05
2018-11-26T05:46:13.251Z,33.05
2018-11-26T05:46:51.032Z,33.07
2018-11-26T05:47:28.766Z,33.05
2018-11-26T05:48:06.736Z,33.02
2018-11-26T05:48:44.471Z,33.05
2018-11-26T05:49:22.926Z,33.03
2018-11-26T05:50:00.733Z,32.97
2018-11-26T05:50:38.501Z,32.99
2018-11-26T05:51:16.158Z,33.01
2018-11-26T05:51:53.941Z,32.99
2018-11-26T05:52:31.859Z,33.02
2018-11-26T05:53:10.039Z,33.00
2018-11-26T05:53:47.723Z,33.01
2018-11-26T05:54:25.460Z,33.03
2018-11-26T05:55:03.202Z,33.09
2018-11-26T05:55:41.067Z,33.11
2018-11-26T05:56:19.024Z,33.14
2018-11-26T05:56:56.821Z,33.18
2018-11-26T05:57:34.719Z,33.18
2018-11-26T05:58:12.630Z,33.19
2018-11-26T05:58:50.607Z,33.22
2018-11-26T05:59:28.469Z,33.25
2018-11-26T06:00:06.463Z,33.24
2018-11-26T06:00:44.305Z,33.26
2018-11-26T06:01:22.184Z,33.20
2018-11-26T06:02:00.189Z,33.23
2018-11-26T06:02:38.153Z,33.26
2018-11-26T06:03:15.889Z,33.29
2018-11-26T06:03:53.608Z,33.33
2018-11-26T06:04:31.389Z,33.31
2018-11-26T06:05:09.697Z,33.34
2018-11-26T06:05:47.504Z,33.30
2018-11-26T06:06:25.315Z,33.32
2018-11-26T06:07:03.180Z,33.34
2018-11-26T06:07:41.043Z,33.33
2018-11-26T06:08:18.773Z,33.28
2018-11-26T06:08:56.457Z,33.27
2018-11-26T06:09:34.284Z,33.33
2018-11-26T06:10:13.014Z,33.33
2018-11-26T06:10:50.789Z,33.37
2018-11-26T06:11:28.550Z,33.40
2018-11-26T06:12:06.447Z,33.37
2018-11-26T06:12:44.214Z,33.41
2018-11-26T06:13:21.988Z,33.45
2018-11-26T06:13:59.718Z,33.47
2018-11-26T06:14:37.450Z,33.48
2018-11-26T06:15:16.217Z,33.51
2018-11-26T06:15:54.054Z,33.52
2018-11-26T06:16:31.916Z,33.47
2018-11-26T06:17:09.760Z,33.40
2018-11-26T06:17:47.673Z,33.47
2018-11-26T06:18:25.435Z,33.51
2018-11-26T06:19:03.202Z,33.48
2018-11-26T06:19:40.885Z,33.50
2018-11-26T06:20:19.732Z,33.47
2018-11-26T06:20:57.409Z,33.53
2018-11-26T06:21:35.106Z,33.56
2018-11-26T06:22:13.005Z,33.62
2018-11-26T06:22:51.626Z,33.63
2018-11-26T06:23:29.520Z,33.62
2018-11-26T06:24:07.318Z,33.65
2018-11-26T06:24:45.214Z,33.67
2018-11-26T06:25:24.014Z,33.73
2018-11-26T06:26:01.711Z,33.69
2018-11-26T06:26:39.400Z,33.71
2018-11-26T06:27:17.271Z,33.73
2018-11-26T06:27:55.147Z,33.73
2018-11-26T06:28:32.935Z,33.78
2018-11-26T06:29:10.802Z,33.80
2018-11-26T06:29:48.575Z,33.77
2018-11-26T06:30:26.431Z,33.70
2018-11-26T06:31:04.378Z,33.66
2018-11-26T06:31:42.283Z,33.70
2018-11-26T06:32:20.092Z,33.66
2018-11-26T06:32:57.797Z,33.62
2018-11-26T06:33:35.750Z,33.60
2018-11-26T06:34:13.565Z,33.55
2018-11-26T06:34:51.469Z,33.50
2018-11-26T06:35:29.449Z,33.51
2018-11-26T06:36:07.325Z,33.55
2018-11-26T06:36:45.143Z,33.56
2018-11-26T06:37:25.085Z,33.58
2018-11-26T06:38:02.986Z,33.61
2018-11-26T06:38:40.852Z,33.59
2018-11-26T06:39:18.758Z,33.59
2018-11-26T06:39:56.517Z,33.56
2018-11-26T06:40:34.375Z,33.50
2018-11-26T06:41:12.188Z,33.52
2018-11-26T06:41:50.118Z,33.48
2018-11-26T06:42:27.979Z,33.45
2018-11-26T06:43:05.678Z,33.41
2018-11-26T06:43:43.591Z,33.45
2018-11-26T06:44:21.429Z,33.38
2018-11-26T06:44:59.143Z,33.37
2018-11-26T06:45:36.981Z,33.40
2018-11-26T06:46:14.777Z,33.41
2018-11-26T06:46:52.550Z,33.39
2018-11-26T06:47:30.322Z,33.35
2018-11-26T06:48:08.346Z,33.34
2018-11-26T06:48:46.147Z,33.36
2018-11-26T06:49:23.984Z,33.33
2018-11-26T06:50:01.719Z,33.38
2018-11-26T06:50:39.730Z,33.40
2018-11-26T06:51:17.583Z,33.44
2018-11-26T06:51:55.393Z,33.44
2018-11-26T06:52:33.302Z,33.45
2018-11-26T06:53:11.321Z,33.45
2018-11-26T06:53:49.196Z,33.45
2018-11-26T06:54:27.125Z,33.42
2018-11-26T06:55:05.553Z,33.39
2018-11-26T06:55:43.255Z,33.38
2018-11-26T06:56:20.999Z,33.36
2018-11-26T06:56:58.718Z,33.32
2018-11-26T06:57:36.424Z,33.32
2018-11-26T06:58:14.119Z,33.32
2018-11-26T06:58:51.875Z,33.32
2018-11-26T06:59:29.644Z,33.28
2018-11-26T07:00:08.864Z,33.26
2018-11-26T07:00:46.764Z,33.27
2018-11-26T07:01:24.449Z,33.27
2018-11-26T07:02:02.242Z,33.26
2018-11-26T07:02:39.999Z,33.26
2018-11-26T07:03:18.069Z,33.23
2018-11-26T07:03:58.821Z,33.18
2018-11-26T07:04:36.530Z,33.17
2018-11-26T07:05:20.868Z,33.15
2018-11-26T07:05:58.684Z,33.13
2018-11-26T07:06:36.497Z,33.15
2018-11-26T07:07:14.415Z,33.15
2018-11-26T07:07:52.336Z,33.15
2018-11-26T07:08:30.194Z,33.11
2018-11-26T07:09:10.110Z,33.17
2018-11-26T07:09:47.875Z,33.20
2018-11-26T07:10:25.854Z,33.21
2018-11-26T07:11:03.688Z,33.22
2018-11-26T07:11:41.468Z,33.19
2018-11-26T07:12:19.166Z,33.15
2018-11-26T07:12:56.906Z,33.11
2018-11-26T07:13:35.032Z,33.07
2018-11-26T07:14:13.108Z,33.06
2018-11-26T07:14:50.827Z,33.07
2018-11-26T07:15:28.555Z,33.11
2018-11-26T07:16:06.440Z,33.08
2018-11-26T07:16:44.312Z,33.08
2018-11-26T07:17:22.232Z,33.06
2018-11-26T07:18:00.175Z,33.01
2018-11-26T07:18:38.665Z,32.99
2018-11-26T07:19:16.357Z,32.99
2018-11-26T07:19:54.228Z,32.96
2018-11-26T07:20:32.008Z,32.96
2018-11-26T07:21:10.215Z,32.94
2018-11-26T07:21:47.866Z,32.96
2018-11-26T07:22:25.794Z,32.95
2018-11-26T07:23:03.585Z,32.91
2018-11-26T07:23:41.395Z,32.92
2018-11-26T07:24:19.109Z,32.94
2018-11-26T07:24:56.896Z,32.98
2018-11-26T07:25:34.753Z,32.97
2018-11-26T07:26:12.541Z,32.96
2018-11-26T07:26:50.269Z,32.90
2018-11-26T07:27:28.226Z,32.91
2018-11-26T07:28:07.162Z,32.93
2018-11-26T07:28:45.041Z,32.88
2018-11-26T07:29:24.284Z,32.85
2018-11-26T07:30:01.283Z,32.86
2018-11-26T07:30:39.182Z,32.87
2018-11-26T07:31:17.101Z,32.89
2018-11-26T07:31:54.984Z,32.91
2018-11-26T07:32:32.738Z,32.92
2018-11-26T07:33:10.619Z,32.92
2018-11-26T07:33:48.394Z,32.89
2018-11-26T07:34:26.689Z,32.87
2018-11-26T07:35:04.412Z,32.87
2018-11-26T07:35:42.208Z,32.91
2018-11-26T07:36:20.108Z,32.93
2018-11-26T07:36:57.997Z,32.93
2018-11-26T07:37:35.898Z,32.90
2018-11-26T07:38:13.609Z,32.89
2018-11-26T07:38:51.302Z,32.92
2018-11-26T07:39:29.202Z,32.91
2018-11-26T07:40:08.509Z,32.94
2018-11-26T07:40:46.445Z,32.93
2018-11-26T07:41:24.156Z,32.89
2018-11-26T07:42:02.009Z,32.86
2018-11-26T07:42:39.876Z,32.83
2018-11-26T07:43:18.105Z,32.85
2018-11-26T07:43:55.807Z,32.88
2018-11-26T07:44:33.633Z,32.87
2018-11-26T07:45:14.121Z,32.90
2018-11-26T07:45:51.879Z,32.88
2018-11-26T07:46:29.741Z,32.87
2018-11-26T07:47:07.463Z,32.92
2018-11-26T07:47:45.176Z,32.90
2018-11-26T07:48:23.163Z,32.87
2018-11-26T07:49:00.835Z,32.85
2018-11-26T07:49:38.630Z,32.87
2018-11-26T07:50:17.669Z,32.84
2018-11-26T07:50:55.547Z,32.81
2018-11-26T07:51:33.427Z,32.81
2018-11-26T07:52:11.217Z,32.82
2018-11-26T07:52:48.989Z,32.84
2018-11-26T07:53:26.888Z,32.80
2018-11-26T07:54:04.644Z,32.76
2018-11-26T07:54:42.486Z,32.77
2018-11-26T07:55:21.354Z,32.75
2018-11-26T07:55:59.254Z,32.81
2018-11-26T07:56:37.151Z,32.80
2018-11-26T07:57:14.880Z,32.78
2018-11-26T07:57:52.854Z,32.77
2018-11-26T07:58:30.541Z,32.74
2018-11-26T07:59:08.409Z,32.78
2018-11-26T07:59:46.301Z,32.78
2018-11-26T08:00:24.297Z,32.79
2018-11-26T08:01:02.201Z,32.78
2018-11-26T08:01:40.049Z,32.76
2018-11-26T08:02:17.776Z,32.73
2018-11-26T08:02:55.590Z,32.76
2018-11-26T08:03:33.363Z,32.80
2018-11-26T08:04:11.069Z,32.80
2018-11-26T08:04:49.004Z,32.77
2018-11-26T08:05:27.097Z,32.79
2018-11-26T08:06:08.862Z,32.80
2018-11-26T08:06:43.228Z,32.81
2018-11-26T08:07:20.904Z,32.79
2018-11-26T08:07:58.677Z,32.81
2018-11-26T08:08:36.583Z,32.76
2018-11-26T08:09:14.368Z,32.77
2018-11-26T08:09:52.121Z,32.71
2018-11-26T08:10:29.922Z,32.72
2018-11-26T08:11:08.441Z,32.74
2018-11-26T08:11:46.242Z,32.71
2018-11-26T08:12:25.143Z,32.72